10 de agosto de 2022

Hora Código Tiempo Temp. Visibilidad Cielo nuboso Viento METAR/SPECI
8:00 a. m.
V
66 °F 30 mi 4.500 ft 360° 360° 3 kt METAR CYUL 101200Z 36003KT 290V020 30SM FEW015 BKN045 19/16 A3010 RMK CU1SC7 CU TR SLP194 DENSITY ALT 400FT
7:00 a. m.
V
63 °F 15 mi 4.200 ft Var Var 2 kt METAR CYUL 101100Z VRB02KT 15SM FEW018 OVC042 17/15 A3008 RMK CU1SC8 CU TR SLP190 DENSITY ALT 300FT
6:00 a. m.
V
63 °F 15 mi 4.500 ft Var 000° 0 kt METAR CYUL 101000Z 00000KT 15SM FEW020 OVC045 17/15 A3007 RMK CF1SC8 CF TR SLP186 DENSITY ALT 300FT
5:00 a. m.
V
63 °F 15 mi 4.800 ft 330° 330° 3 kt METAR CYUL 100900Z 33003KT 15SM OVC048 17/15 A3007 RMK SC8 SLP184 DENSITY ALT 300FT
4:00 a. m.
V
63 °F 15 mi 5.000 ft 310° 310° 3 kt METAR CYUL 100800Z 31003KT 15SM OVC050 17/15 A3006 RMK SC8 SLP183 DENSITY ALT 300FT
3:00 a. m.
V
63 °F 15 mi 5.000 ft 320° 320° 3 kt METAR CYUL 100700Z 32003KT 15SM FEW025 OVC050 17/15 A3006 RMK SC1SC8 SC TR SLP181 DENSITY ALT 300FT
2:00 a. m.
V
63 °F 15 mi 5.000 ft 320° 320° 2 kt METAR CYUL 100600Z 32002KT 15SM FEW028 OVC050 17/15 A3005 RMK SC1SC8 SC TR SLP179 DENSITY ALT 300FT
1:00 a. m.
V
64 °F 15 mi 5.200 ft 340° 340° 4 kt METAR CYUL 100500Z 34004KT 15SM FEW028 OVC052 18/15 A3005 RMK SC2SC6 SLP180 DENSITY ALT 400FT
12:00 a. m.
V
64 °F 15 mi 5.200 ft 030° 030° 5 kt METAR CYUL 100400Z 03005KT 15SM FEW028 OVC052 18/15 A3005 RMK SC1SC8 SC TR SLP179 DENSITY ALT 300FT

9 de agosto de 2022

Hora Código Tiempo Temp. Visibilidad Cielo nuboso Viento METAR/SPECI
11:00 p. m.
V
64 °F 15 mi 5.200 ft 360° 360° 4 kt METAR CYUL 100300Z 36004KT 320V040 15SM SCT028 OVC052 18/15 A3005 RMK SC3SC5 SLP179 DENSITY ALT 400FT
10:00 p. m.
M
64 °F 15 mi 2.500 ft 360° 360° 4 kt METAR CYUL 100200Z 36004KT 15SM OVC025 18/15 A3005 RMK SC8 SLP178 DENSITY ALT 400FT
9:00 p. m.
M
64 °F 15 mi 2.500 ft 020° 020° 5 kt METAR CYUL 100100Z 02005KT 15SM OVC025 18/14 A3005 RMK SC8 SLP177 DENSITY ALT 400FT
8:00 p. m.
M
66 °F 15 mi 2.800 ft 360° 360° 5 kt METAR CYUL 100000Z 36005KT 15SM OVC028 19/14 A3004 RMK SC8 SLP174 DENSITY ALT 500FT
7:00 p. m.
M
66 °F 12 mi 2.800 ft 360° 360° 6 kt METAR CYUL 092300Z 36006KT 12SM OVC028 19/14 A3002 RMK SC8 SLP170 DENSITY ALT 500FT
6:00 p. m.
V
66 °F 12 mi 4.500 ft 020° 020° 7 kt METAR CYUL 092200Z 02007KT 12SM OVC045 19/14 A3002 RMK SC8 SLP167 DENSITY ALT 500FT
5:00 p. m.
M
66 °F 12 mi 2.200 ft 010° 010° 7 kt METAR CYUL 092100Z 01007KT 300V040 12SM OVC022 19/14 A3001 RMK SC8 SLP166 DENSITY ALT 500FT
4:00 p. m.
M
64 °F 12 mi 2.200 ft 030° 030° 10 kt METAR CYUL 092000Z 03010KT 12SM OVC022 18/15 A3001 RMK SC8 CIG RAG SLP166 DENSITY ALT 400FT
3:00 p. m.
M
64 °F 10 mi 1.800 ft 010° 010° 11 kt METAR CYUL 091900Z 01011KT 10SM BKN018 18/14 A3000 RMK SC7 SLP162 DENSITY ALT 400FT
2:00 p. m.
M
63 °F 6 mi 1.900 ft 020° 020° 9 - 15 kt METAR CYUL 091800Z 02009G15KT 6SM -DZ BR OVC019 17/15 A3000 RMK ST8 SLP161 DENSITY ALT 400FT
1:17 p. m.
M
63 °F 6 mi 1.800 ft 350° 350° 10 kt METAR CYUL 091717Z 35010KT 6SM -DZ BR OVC018 17/15 A2999 RMK ST8 SLP157 DENSITY ALT 400FT
1:00 p. m.
M
63 °F 10 mi 1.600 ft 010° 010° 8 kt METAR CYUL 091700Z 01008KT 10SM OVC016 17/14 A2998 RMK ST8 SLP156 DENSITY ALT 400FT
12:46 p. m.
M
63 °F 10 mi 1.600 ft 360° 360° 9 kt METAR CYUL 091646Z 36009KT 10SM OVC016 17/14 A2998 RMK ST8 SLP154 DENSITY ALT 400FT
12:00 p. m.
M
61 °F 8 mi 1.400 ft 010° 010° 9 kt METAR CYUL 091600Z 01009KT 8SM -DZ OVC014 16/15 A2997 RMK ST8 SLP151 DENSITY ALT 300FT
11:00 a. m.
M
61 °F 8 mi 1.100 ft 010° 010° 10 kt METAR CYUL 091500Z 01010KT 8SM -DZ OVC011 16/14 A2995 RMK ST8 SLP144 DENSITY ALT 300FT
10:00 a. m.
M
61 °F 5 mi 1.000 ft 010° 010° 8 - 15 kt METAR CYUL 091400Z 01008G15KT 5SM -DZ BR OVC010 16/14 A2993 RMK ST8 SLP137 DENSITY ALT 200FT
9:00 a. m.
I
59 °F 5 mi 500 ft 010° 010° 8 kt METAR CYUL 091300Z 01008KT 5SM -DZ BR BKN005 OVC011 15/14 A2991 RMK SF7SC1 SLP131 DENSITY ALT 200FT
8:37 a. m.
I
59 °F 2½ mi 700 ft 010° 010° 8 kt METAR CYUL 091237Z 01008KT 2 1/2SM -DZ BR BKN007 OVC012 15/14 A2990 RMK SF6SC2 SLP129 DENSITY ALT 200FT
8:00 a. m.
I
59 °F 4 mi 800 ft 010° 010° 9 kt METAR CYUL 091200Z 01009KT 4SM -DZ BR OVC008 15/14 A2988 RMK ST8 SLP122 DENSITY ALT 200FT
7:12 a. m.
I
59 °F 15 mi 800 ft 010° 010° 13 kt METAR CYUL 091112Z 01013KT 15SM -DZ OVC008 15/13 A2986 RMK ST8 SLP115 DENSITY ALT 200FT
7:00 a. m.
I
59 °F 15 mi 800 ft 020° 020° 13 kt METAR CYUL 091100Z 02013KT 15SM OVC008 15/13 A2986 RMK ST8 SLP112 DENSITY ALT 200FT
6:00 a. m.
I
59 °F 15 mi 800 ft 020° 020° 12 kt METAR CYUL 091000Z 02012KT 15SM OVC008 15/14 A2983 RMK SC8 SLP103 DENSITY ALT 300FT
5:00 a. m.
I
59 °F 15 mi 800 ft 010° 010° 11 kt METAR CYUL 090900Z 01011KT 15SM BKN008 15/14 A2980 RMK SF8 SLP093 DENSITY ALT 300FT
4:39 a. m.
I
59 °F 12 mi 600 ft 010° 010° 10 kt METAR CYUL 090839Z 01010KT 12SM -RA BKN006 OVC028 15/14 A2980 RMK SF6SC2 SLP092 DENSITY ALT 300FT
4:15 a. m.
V
59 °F 5 mi 3.000 ft 010° 010° 7 kt METAR CYUL 090815Z 01007KT 5SM -RA BR SCT006 OVC030 15/14 A2979 RMK SF4SC4 SLP089 DENSITY ALT 300FT
4:00 a. m.
I
59 °F 3 mi 500 ft 350° 350° 8 kt METAR CYUL 090800Z 35008KT 3SM -RA BR BKN005 OVC023 15/14 A2979 RMK SF7SC1 SLP090 DENSITY ALT 300FT
3:00 a. m.
I
57 °F 2½ mi 600 ft 030° 030° 10 kt METAR CYUL 090700Z 03010KT 2 1/2SM -RA BR BKN006 OVC012 14/14 A2976 RMK SF5SC3 /R15/ PRESRR SLP081 DENSITY ALT 300FT
2:45 a. m.
I
57 °F 1¾ mi 1.200 ft 030° 030° 12 - 18 kt METAR CYUL 090645Z 03012G18KT 1 3/4SM R06L/3000VP6000FT/U -RA BR FEW006 OVC012 14/14 A2975 RMK SF1NS7 SLP075 DENSITY ALT 300FT
2:38 a. m.
I
57 °F 1 mi 600 ft 030° 030° 14 kt METAR CYUL 090638Z 03014KT 1SM R06L/3500VP6000FT/D +RA BR OVC006 14/14 A2975 RMK ST8 SLP075 DENSITY ALT 300FT
2:21 a. m.
I
57 °F 2½ mi 700 ft 020° 020° 13 kt METAR CYUL 090621Z 02013KT 2 1/2SM RA BR OVC007 14/14 A2976 RMK ST8 SLP079 DENSITY ALT 300FT
2:15 a. m.
I
59 °F 3 mi 700 ft 020° 020° 13 kt METAR CYUL 090615Z 02013KT 3SM RA BR OVC007 15/14 A2975 RMK ST8 SLP077 DENSITY ALT 300FT
2:00 a. m.
I
59 °F 12 mi 800 ft 040° 040° 10 kt METAR CYUL 090600Z 04010KT 12SM -RA BKN008 OVC023 15/14 A2976 RMK ST7SC1 PRESFR SLP078 DENSITY ALT 300FT
1:00 a. m.
I
59 °F 8 mi 800 ft 020° 020° 12 - 18 kt METAR CYUL 090500Z 02012G18KT 8SM -RA OVC008 15/14 A2978 RMK ST8 SLP087 DENSITY ALT 300FT
12:25 a. m.
I
59 °F 5 mi 600 ft 030° 030° 10 kt METAR CYUL 090425Z 03010KT 5SM -RA BR OVC006 15/14 A2979 RMK ST8 SLP090 DENSITY ALT 300FT
12:00 a. m.
I
59 °F 12 mi 700 ft 030° 030° 13 kt METAR CYUL 090400Z 03013KT 12SM -DZ OVC007 15/14 A2979 RMK ST8 SLP090 DENSITY ALT 300FT

8 de agosto de 2022

Hora Código Tiempo Temp. Visibilidad Cielo nuboso Viento METAR/SPECI
11:00 p. m.
I
59 °F 10 mi 700 ft 030° 030° 16 kt METAR CYUL 090300Z 03016KT 10SM -RA OVC007 15/14 A2979 RMK ST8 SLP091 DENSITY ALT 300FT
10:00 p. m.
I
59 °F 8 mi 700 ft 020° 020° 16 kt METAR CYUL 090200Z 02016KT 8SM -RA OVC007 15/14 A2978 RMK ST8 SLP088 DENSITY ALT 400FT
9:30 p. m.
I
61 °F 15 mi 700 ft 010° 010° 10 - 15 kt METAR CYUL 090130Z 01010G15KT 15SM -RA BKN007 BKN013 OVC025 16/15 A2979 RMK SF5SC2SC1 SLP090 DENSITY ALT 500FT
9:00 p. m.
M
61 °F 15 mi 1.700 ft 020° 020° 8 kt METAR CYUL 090100Z 02008KT 15SM -RA FEW008 SCT013 BKN017 OVC025 16/16 A2978 RMK SF1SF3SC3SC1 SLP088 DENSITY ALT 500FT
8:50 p. m.
M
63 °F 15 mi 1.800 ft 030° 030° 7 kt METAR CYUL 090050Z 03007KT 340V050 15SM -RA SCT014 BKN018 OVC025 17/15 A2978 RMK SF4SC3SC1 SLP088 DENSITY ALT 500FT
8:00 p. m.
M
63 °F 15 mi 1.200 ft 040° 040° 6 kt METAR CYUL 090000Z 04006KT 15SM FEW008 BKN012 OVC020 17/15 A2978 RMK SF2ST4SC2 SLP086 DENSITY ALT 600FT
7:00 p. m.
M
63 °F 15 mi 1.100 ft 040° 040° 7 kt METAR CYUL 082300Z 04007KT 15SM FEW008 OVC011 17/15 A2979 RMK SF2ST6 SLP091 DENSITY ALT 600FT
6:00 p. m.
I
63 °F 15 mi 800 ft 050° 050° 9 kt METAR CYUL 082200Z 05009KT 15SM BKN008 OVC012 17/15 A2981 RMK ST6SC2 SLP098 DENSITY ALT 500FT
5:00 p. m.
M
63 °F 15 mi 1.100 ft 040° 040° 11 - 16 kt METAR CYUL 082100Z 04011G16KT 15SM FEW008 BKN011 OVC020 17/15 A2984 RMK SF2SC5SC1 SLP105 DENSITY ALT 500FT
4:00 p. m.
M
63 °F 15 mi 1.300 ft 040° 040° 14 kt METAR CYUL 082000Z 04014KT 15SM SCT008 BKN013 OVC020 17/15 A2985 RMK SF3SC3SC2 SLP111 DENSITY ALT 500FT
3:00 p. m.
M
63 °F 15 mi 1.400 ft 050° 050° 11 - 17 kt METAR CYUL 081900Z 05011G17KT 15SM FEW009 BKN014 OVC022 17/15 A2989 RMK SF1SC5SC2 SLP122 DENSITY ALT 500FT
2:37 p. m.
M
63 °F 15 mi 1.800 ft 050° 050° 11 kt METAR CYUL 081837Z 05011KT 15SM -SHRA FEW009 SCT014 OVC018 17/16 A2990 RMK SF2SC2SC4 CVCTV CLD EMBD SLP126 DENSITY ALT 400FT
2:00 p. m.
I
61 °F 15 mi 800 ft 040° 040° 12 kt METAR CYUL 081800Z 04012KT 15SM -SHRA BKN008 OVC012 16/15 A2991 RMK SF6SC2 SLP131 DENSITY ALT 300FT
1:38 p. m.
I
61 °F 12 mi 800 ft 040° 040° 13 kt METAR CYUL 081738Z 04013KT 12SM -SHRA BKN008 OVC012 16/15 A2992 RMK SF6ST2 CVCTV CLD EMBD SLP134 DENSITY ALT 300FT
1:00 p. m.
M
61 °F 15 mi 1.200 ft 050° 050° 13 kt METAR CYUL 081700Z 05013KT 15SM SCT008 OVC012 16/15 A2993 RMK SF3ST5 SLP136 DENSITY ALT 300FT
12:00 p. m.
M
63 °F 15 mi 1.200 ft 050° 050° 11 kt METAR CYUL 081600Z 05011KT 15SM SCT008 BKN012 OVC022 17/15 A2993 RMK SF3SC3SC2 SLP138 DENSITY ALT 400FT
11:38 a. m.
M
63 °F 15 mi 1.200 ft 050° 050° 10 - 15 kt METAR CYUL 081538Z 05010G15KT 15SM FEW008 BKN012 OVC023 17/15 A2994 RMK SF1SC5SC2 SLP142 DENSITY ALT 400FT
11:00 a. m.
M
61 °F 15 mi 2.300 ft 050° 050° 10 kt METAR CYUL 081500Z 05010KT 15SM FEW009 SCT014 OVC023 16/15 A2995 RMK SF2SC2SC4 SLP145 DENSITY ALT 300FT
10:55 a. m.
M
61 °F 15 mi 2.300 ft 060° 060° 10 kt METAR CYUL 081455Z 06010KT 15SM FEW009 SCT013 OVC023 16/15 A2995 RMK SF2SC2SC4 SLP145 DENSITY ALT 300FT
Datos más antiguos

Nosotros y terceros seguimos tu comportamiento en Internet en nuestro sitio web con cookies. Si continúas, asumimos que estás de acuerdo con nuestra política de cookies. Más información